createdAt,value
2023-03-05T00:01:46.899Z,36.58
2023-03-05T00:04:15.089Z,44.28
2023-03-05T00:06:42.783Z,34.40
2023-03-05T00:09:10.588Z,38.95
2023-03-05T00:11:38.120Z,38.65
2023-03-05T00:14:06.437Z,34.63
2023-03-05T00:16:34.202Z,40.63
2023-03-05T00:19:02.271Z,35.92
2023-03-05T00:21:31.487Z,39.83
2023-03-05T00:24:01.603Z,34.47
2023-03-05T00:26:29.618Z,38.38
2023-03-05T00:28:57.555Z,36.80
2023-03-05T00:31:32.426Z,40.38
2023-03-05T00:34:02.245Z,40.80
2023-03-05T00:36:30.395Z,40.40
2023-03-05T00:38:58.128Z,41.90
2023-03-05T00:41:25.883Z,46.90
2023-03-05T00:43:53.254Z,38.35
2023-03-05T00:46:20.776Z,43.10
2023-03-05T00:48:48.217Z,41.38
2023-03-05T00:51:15.675Z,38.20
2023-03-05T00:53:43.082Z,41.95
2023-03-05T00:56:10.605Z,45.13
2023-03-05T00:58:38.485Z,43.53
2023-03-05T01:01:06.897Z,44.65
2023-03-05T01:03:35.852Z,47.17
2023-03-05T01:06:08.117Z,44.45
2023-03-05T01:08:36.087Z,42.92
2023-03-05T01:11:04.185Z,43.45
2023-03-05T01:13:31.762Z,50.30
2023-03-05T01:15:59.217Z,41.78
2023-03-05T01:18:26.705Z,45.72
2023-03-05T01:20:54.064Z,47.72
2023-03-05T01:23:21.689Z,49.75
2023-03-05T01:25:59.234Z,46.13
2023-03-05T01:28:28.558Z,49.50
2023-03-05T01:30:56.017Z,51.50
2023-03-05T01:33:23.540Z,52.80
2023-03-05T01:35:51.414Z,46.83
2023-03-05T01:38:19.338Z,54.83
2023-03-05T01:40:46.772Z,48.35
2023-03-05T01:43:14.214Z,52.53
2023-03-05T01:46:00.455Z,47.85
2023-03-05T01:48:28.441Z,49.53
2023-03-05T01:50:55.955Z,50.85
2023-03-05T01:53:23.380Z,49.15
2023-03-05T01:55:50.850Z,52.45
2023-03-05T01:58:18.560Z,50.58
2023-03-05T02:00:47.803Z,48.60
2023-03-05T02:03:15.279Z,58.72
2023-03-05T02:05:45.911Z,52.28
2023-03-05T02:08:14.835Z,54.30
2023-03-05T02:10:42.243Z,53.25
2023-03-05T02:13:11.438Z,54.75
2023-03-05T02:15:39.556Z,53.08
2023-03-05T02:18:08.109Z,55.90
2023-03-05T02:20:49.149Z,58.00
2023-03-05T02:23:17.273Z,53.88
2023-03-05T02:25:44.854Z,54.65
2023-03-05T02:28:12.499Z,54.13
2023-03-05T02:30:39.927Z,58.55
2023-03-05T02:33:07.501Z,59.42
2023-03-05T02:35:35.283Z,61.85
2023-03-05T02:38:03.604Z,55.58
2023-03-05T02:40:31.525Z,60.35
2023-03-05T02:42:59.025Z,56.70
2023-03-05T02:45:27.830Z,59.58
2023-03-05T02:47:55.324Z,55.40
2023-03-05T02:50:23.166Z,54.22
2023-03-05T02:52:50.578Z,62.75
2023-03-05T02:55:18.959Z,53.67
2023-03-05T02:57:46.539Z,58.95
2023-03-05T03:00:14.321Z,59.10
2023-03-05T03:02:41.874Z,53.33
2023-03-05T03:05:09.679Z,55.10
2023-03-05T03:07:37.132Z,52.95
2023-03-05T03:10:05.655Z,55.60
2023-03-05T03:12:33.022Z,50.30
2023-03-05T03:15:01.769Z,58.28
2023-03-05T03:17:29.357Z,57.22
2023-03-05T03:19:56.757Z,54.88
2023-03-05T03:22:24.238Z,57.97
2023-03-05T03:24:51.812Z,55.85
2023-03-05T03:27:19.220Z,58.40
2023-03-05T03:29:46.650Z,52.88
2023-03-05T03:32:14.081Z,60.00
2023-03-05T03:34:41.931Z,58.10
2023-03-05T03:37:12.446Z,55.58
2023-03-05T03:39:39.897Z,54.67
2023-03-05T03:42:07.356Z,63.45
2023-03-05T03:44:34.836Z,58.53
2023-03-05T03:47:02.293Z,60.05
2023-03-05T03:49:29.852Z,56.88
2023-03-05T03:51:58.332Z,49.00
2023-03-05T03:54:25.874Z,62.40
2023-03-05T03:56:53.535Z,62.70
2023-03-05T03:59:21.054Z,57.17
2023-03-05T04:01:48.559Z,63.25
2023-03-05T04:04:16.406Z,57.78
2023-03-05T04:06:43.883Z,61.85
2023-03-05T04:09:11.336Z,57.85
2023-03-05T04:11:38.897Z,58.40
2023-03-05T04:14:06.631Z,56.60
2023-03-05T04:16:34.066Z,59.50
2023-03-05T04:19:01.446Z,56.05
2023-03-05T04:21:29.644Z,62.40
2023-03-05T04:23:57.050Z,59.35
2023-03-05T04:26:24.455Z,59.38
2023-03-05T04:28:51.818Z,65.65
2023-03-05T04:31:20.634Z,62.47
2023-03-05T04:33:48.147Z,54.85
2023-03-05T04:36:15.532Z,55.35
2023-03-05T04:38:42.931Z,55.13
2023-03-05T04:41:10.452Z,58.67
2023-03-05T04:43:37.807Z,58.13
2023-03-05T04:46:05.397Z,61.45
2023-03-05T04:48:32.823Z,59.65
2023-03-05T04:51:00.246Z,63.90
2023-03-05T04:53:27.634Z,60.28
2023-03-05T04:55:55.349Z,64.53
2023-03-05T04:58:23.218Z,59.20
2023-03-05T05:00:50.651Z,62.30
2023-03-05T05:03:18.097Z,63.97
2023-03-05T05:05:45.557Z,62.38
2023-03-05T05:08:12.983Z,51.83
2023-03-05T05:10:41.500Z,57.70
2023-03-05T05:13:08.886Z,58.75
2023-03-05T05:15:36.308Z,62.08
2023-03-05T05:18:03.720Z,53.65
2023-03-05T05:20:31.106Z,62.67
2023-03-05T05:22:58.469Z,57.63
2023-03-05T05:25:25.852Z,59.70
2023-03-05T05:27:53.201Z,104.03
2023-03-05T05:30:20.723Z,93.30
2023-03-05T05:32:48.095Z,65.72
2023-03-05T05:35:15.482Z,54.30
2023-03-05T05:37:42.982Z,52.67
2023-03-05T05:40:10.808Z,53.50
2023-03-05T05:42:38.273Z,50.05
2023-03-05T05:45:06.135Z,47.78
2023-03-05T05:47:33.766Z,47.75
2023-03-05T05:50:01.124Z,39.67
2023-03-05T05:52:28.520Z,37.63
2023-03-05T05:54:56.013Z,37.10
2023-03-05T05:57:23.465Z,35.75
2023-03-05T05:59:50.855Z,40.55
2023-03-05T06:02:18.295Z,40.17
2023-03-05T06:04:45.738Z,38.40
2023-03-05T06:07:13.216Z,37.38
2023-03-05T06:09:40.600Z,34.88
2023-03-05T06:12:08.317Z,37.67
2023-03-05T06:14:35.686Z,33.00
2023-03-05T06:17:03.189Z,35.90
2023-03-05T06:19:30.620Z,34.20
2023-03-05T06:21:58.343Z,33.78
2023-03-05T06:24:25.751Z,33.72
2023-03-05T06:26:53.204Z,36.45
2023-03-05T06:29:20.718Z,34.10
2023-03-05T06:31:48.121Z,34.47
2023-03-05T06:34:15.607Z,37.60
2023-03-05T06:36:43.691Z,35.30
2023-03-05T06:39:11.167Z,33.03
2023-03-05T06:41:38.659Z,37.58
2023-03-05T06:44:06.213Z,33.13
2023-03-05T06:46:34.898Z,34.85
2023-03-05T06:49:02.879Z,32.35
2023-03-05T06:51:32.135Z,32.13
2023-03-05T06:54:03.576Z,29.92
2023-03-05T06:56:31.106Z,31.50
2023-03-05T06:58:58.499Z,32.17
2023-03-05T07:01:25.989Z,29.63
2023-03-05T07:03:54.476Z,31.30
2023-03-05T07:06:22.541Z,35.30
2023-03-05T07:08:50.190Z,32.17
2023-03-05T07:11:18.919Z,31.55
2023-03-05T07:13:49.668Z,31.67
2023-03-05T07:16:18.591Z,32.13
2023-03-05T07:18:46.493Z,33.65
2023-03-05T07:21:18.833Z,30.42
2023-03-05T07:23:46.360Z,31.70
2023-03-05T07:26:13.885Z,35.88
2023-03-05T07:28:41.675Z,37.20
2023-03-05T07:31:10.290Z,37.60
2023-03-05T07:33:37.772Z,36.38
2023-03-05T07:36:05.861Z,38.83
2023-03-05T07:38:33.308Z,43.42
2023-03-05T07:41:04.768Z,39.08
2023-03-05T07:43:32.197Z,40.20
2023-03-05T07:45:59.609Z,40.25
2023-03-05T07:48:27.110Z,44.55
2023-03-05T07:51:01.763Z,41.33
2023-03-05T07:53:29.227Z,42.58
2023-03-05T07:55:56.622Z,44.72
2023-03-05T07:58:24.074Z,41.03
2023-03-05T08:00:51.556Z,46.90
2023-03-05T08:03:18.975Z,43.38
2023-03-05T08:05:46.740Z,43.08
2023-03-05T08:08:14.244Z,43.03
2023-03-05T08:10:41.694Z,41.80
2023-03-05T08:13:09.172Z,46.13
2023-03-05T08:15:38.037Z,45.70
2023-03-05T08:18:05.535Z,40.75
2023-03-05T08:20:35.595Z,49.28
2023-03-05T08:23:03.407Z,44.92
2023-03-05T08:25:31.459Z,44.97
2023-03-05T08:27:59.147Z,46.40
2023-03-05T08:30:27.574Z,43.70
2023-03-05T08:32:55.810Z,47.08
2023-03-05T08:35:23.369Z,48.85
2023-03-05T08:37:50.985Z,48.47
2023-03-05T08:40:18.490Z,48.80
2023-03-05T08:42:46.455Z,41.83
2023-03-05T08:45:14.280Z,47.08
2023-03-05T08:47:41.712Z,40.65
2023-03-05T08:50:09.536Z,45.45
2023-03-05T08:52:37.143Z,46.92
2023-03-05T08:55:04.680Z,49.28
2023-03-05T08:57:32.146Z,43.63
2023-03-05T08:59:59.825Z,40.30
2023-03-05T09:02:27.267Z,41.13
2023-03-05T09:04:54.865Z,43.38
2023-03-05T09:07:22.312Z,44.53
2023-03-05T09:09:49.815Z,43.00
2023-03-05T09:12:17.252Z,47.47
2023-03-05T09:14:44.682Z,53.60
2023-03-05T09:17:12.057Z,45.20
2023-03-05T09:19:39.573Z,44.88
2023-03-05T09:22:06.985Z,47.20
2023-03-05T09:24:34.544Z,46.35
2023-03-05T09:27:02.033Z,43.83
2023-03-05T09:29:31.325Z,47.35
2023-03-05T09:31:58.840Z,46.55
2023-03-05T09:34:26.478Z,46.92
2023-03-05T09:36:53.890Z,47.63
2023-03-05T09:39:21.347Z,45.55
2023-03-05T09:41:55.038Z,48.40
2023-03-05T09:44:31.686Z,43.42
2023-03-05T09:47:17.901Z,45.50
2023-03-05T09:49:57.297Z,47.42
2023-03-05T09:52:29.792Z,53.08
2023-03-05T09:54:57.803Z,49.50
2023-03-05T09:57:29.943Z,47.05
2023-03-05T10:00:00.281Z,52.08
2023-03-05T10:02:33.541Z,53.90
2023-03-05T10:05:04.857Z,47.08
2023-03-05T10:07:34.579Z,50.97
2023-03-05T10:10:03.370Z,47.95
2023-03-05T10:12:54.024Z,54.97
2023-03-05T10:15:35.681Z,55.83
2023-03-05T10:18:22.435Z,50.90
2023-03-05T10:20:54.982Z,55.13
2023-03-05T10:23:29.277Z,55.78
2023-03-05T10:26:15.386Z,48.20
2023-03-05T10:28:51.621Z,47.35
2023-03-05T10:31:25.339Z,47.65
2023-03-05T10:33:55.774Z,48.78
2023-03-05T10:36:45.826Z,49.00
2023-03-05T10:39:19.398Z,54.00
2023-03-05T10:41:53.239Z,48.03
2023-03-05T10:44:40.965Z,42.85
2023-03-05T10:47:23.461Z,47.20
2023-03-05T10:49:52.418Z,41.60
2023-03-05T10:52:51.698Z,41.03
2023-03-05T10:55:20.931Z,41.92
2023-03-05T10:57:48.973Z,43.88
2023-03-05T11:00:16.599Z,44.08
2023-03-05T11:02:55.289Z,47.20
2023-03-05T11:05:41.519Z,41.92
2023-03-05T11:08:35.405Z,39.85
2023-03-05T11:11:04.572Z,40.90
2023-03-05T11:13:33.826Z,42.53
2023-03-05T11:16:02.819Z,43.42
2023-03-05T11:18:37.722Z,39.10
2023-03-05T11:21:10.699Z,36.88
2023-03-05T11:23:38.724Z,38.38
2023-03-05T11:26:09.110Z,39.45
2023-03-05T11:28:38.981Z,30.55
2023-03-05T11:31:21.885Z,34.65
2023-03-05T11:34:09.817Z,39.75
2023-03-05T11:36:37.418Z,42.65
2023-03-05T11:39:08.108Z,38.47
2023-03-05T11:41:48.596Z,40.38
2023-03-05T11:44:18.413Z,36.88
2023-03-05T11:46:48.246Z,38.15
2023-03-05T11:49:19.116Z,37.80
2023-03-05T11:51:52.037Z,38.38
2023-03-05T11:54:23.865Z,39.25
2023-03-05T11:56:52.944Z,38.85
2023-03-05T11:59:24.257Z,42.78
2023-03-05T12:01:56.422Z,40.72
2023-03-05T12:04:27.769Z,35.38
2023-03-05T12:06:57.977Z,34.80
2023-03-05T12:09:38.036Z,39.03
2023-03-05T12:12:24.202Z,40.33
2023-03-05T12:14:54.992Z,37.67
2023-03-05T12:17:26.432Z,39.75
2023-03-05T12:20:05.302Z,39.65
2023-03-05T12:22:34.854Z,41.70
2023-03-05T12:25:21.052Z,36.88
2023-03-05T12:27:48.483Z,45.22
2023-03-05T12:30:50.865Z,39.95
2023-03-05T12:33:36.892Z,36.72
2023-03-05T12:36:22.553Z,41.55
2023-03-05T12:38:53.373Z,35.22
2023-03-05T12:41:25.248Z,37.95
2023-03-05T12:44:05.849Z,39.00
2023-03-05T12:46:36.363Z,37.30
2023-03-05T12:49:19.115Z,37.95
2023-03-05T12:51:53.830Z,37.50
2023-03-05T12:54:33.635Z,39.20
2023-03-05T12:57:06.712Z,39.95
2023-03-05T12:59:41.471Z,38.83
2023-03-05T13:02:34.887Z,40.05
2023-03-05T13:05:05.772Z,38.22
2023-03-05T13:07:33.200Z,36.45
2023-03-05T13:10:00.738Z,41.15
2023-03-05T13:12:29.913Z,40.42
2023-03-05T13:15:04.890Z,37.03
2023-03-05T13:20:00.687Z,36.88
2023-03-05T13:22:28.602Z,39.47
2023-03-05T13:25:11.558Z,39.00
2023-03-05T13:27:39.182Z,35.53
2023-03-05T13:30:06.963Z,35.90
2023-03-05T13:32:34.587Z,35.97
2023-03-05T13:35:02.447Z,38.83
2023-03-05T13:37:33.954Z,40.67
2023-03-05T13:40:07.367Z,39.42
2023-03-05T13:42:36.289Z,35.05
2023-03-05T13:45:21.091Z,38.58
2023-03-05T13:48:00.599Z,38.85
2023-03-05T13:50:32.339Z,39.83
2023-03-05T13:53:19.473Z,40.20
2023-03-05T13:55:47.565Z,38.85
2023-03-05T13:58:41.396Z,43.00
2023-03-05T14:01:28.203Z,43.20
2023-03-05T14:04:19.240Z,39.38
2023-03-05T14:06:56.826Z,39.72
2023-03-05T14:09:28.797Z,41.13
2023-03-05T14:12:06.742Z,39.90
2023-03-05T14:14:37.317Z,40.53
2023-03-05T14:17:24.686Z,38.88
2023-03-05T14:19:52.333Z,41.80
2023-03-05T14:22:36.196Z,39.60
2023-03-05T14:25:04.361Z,41.85
2023-03-05T14:27:34.171Z,42.95
2023-03-05T14:30:01.743Z,42.60
2023-03-05T14:32:31.690Z,41.63
2023-03-05T14:35:00.429Z,38.90
2023-03-05T14:37:35.956Z,36.70
2023-03-05T14:40:07.978Z,38.85
2023-03-05T14:42:38.416Z,39.22
2023-03-05T14:45:15.845Z,42.78
2023-03-05T14:47:43.357Z,41.80
2023-03-05T14:50:31.338Z,38.70
2023-03-05T14:52:59.863Z,40.13
2023-03-05T14:55:31.064Z,39.55
2023-03-05T14:58:02.178Z,40.83
2023-03-05T15:00:29.860Z,42.17
2023-03-05T15:02:58.119Z,41.53
2023-03-05T15:05:26.051Z,42.85
2023-03-05T15:07:53.828Z,44.08
2023-03-05T15:10:23.223Z,42.25
2023-03-05T15:12:51.301Z,43.05
2023-03-05T15:15:19.653Z,44.78
2023-03-05T15:17:48.006Z,51.75
2023-03-05T15:20:20.305Z,48.40
2023-03-05T15:22:47.960Z,47.25
2023-03-05T15:25:15.537Z,52.22
2023-03-05T15:27:43.073Z,49.72
2023-03-05T15:30:15.262Z,57.13
2023-03-05T15:32:42.720Z,56.38
2023-03-05T15:35:10.341Z,59.17
2023-03-05T15:37:37.794Z,60.13
2023-03-05T15:40:05.503Z,56.63
2023-03-05T15:42:33.061Z,82.75
2023-03-05T15:45:00.456Z,75.20
2023-03-05T15:47:27.820Z,73.88
2023-03-05T15:49:55.246Z,68.70
2023-03-05T15:52:22.978Z,61.90
2023-03-05T15:54:50.495Z,71.38
2023-03-05T15:57:18.139Z,112.80
2023-03-05T15:59:45.620Z,115.65
2023-03-05T16:02:13.003Z,105.18
2023-03-05T16:04:40.767Z,101.82
2023-03-05T16:07:09.155Z,87.95
2023-03-05T16:09:39.309Z,84.40
2023-03-05T16:12:09.125Z,79.10
2023-03-05T16:14:38.076Z,79.32
2023-03-05T16:17:06.033Z,73.68
2023-03-05T16:19:35.968Z,61.25
2023-03-05T16:22:03.486Z,70.57
2023-03-05T16:24:33.083Z,81.72
2023-03-05T16:27:00.505Z,87.32
2023-03-05T16:29:30.747Z,80.05
2023-03-05T16:31:58.528Z,71.05
2023-03-05T16:34:26.146Z,85.00
2023-03-05T16:36:53.743Z,98.43
2023-03-05T16:39:21.999Z,81.50
2023-03-05T16:41:50.997Z,77.30
2023-03-05T16:44:18.413Z,69.93
2023-03-05T16:46:49.269Z,52.80
2023-03-05T16:49:17.341Z,60.30
2023-03-05T16:51:44.689Z,35.60
2023-03-05T16:54:12.280Z,30.45
2023-03-05T16:56:39.604Z,20.80
2023-03-05T16:59:07.091Z,22.90
2023-03-05T17:01:34.506Z,20.92
2023-03-05T17:04:02.286Z,20.17
2023-03-05T17:06:30.963Z,19.77
2023-03-05T17:08:58.681Z,17.98
2023-03-05T17:11:26.166Z,18.92
2023-03-05T17:13:53.667Z,16.60
2023-03-05T17:16:22.118Z,19.50
2023-03-05T17:18:49.604Z,18.73
2023-03-05T17:21:17.151Z,21.25
2023-03-05T17:23:44.633Z,19.48
2023-03-05T17:26:13.740Z,18.55
2023-03-05T17:28:41.587Z,19.23
2023-03-05T17:31:09.417Z,16.33
2023-03-05T17:33:37.910Z,19.70
2023-03-05T17:36:05.972Z,17.80
2023-03-05T17:38:33.427Z,17.00
2023-03-05T17:41:00.818Z,17.58
2023-03-05T17:43:28.402Z,17.50
2023-03-05T17:45:59.594Z,25.15
2023-03-05T17:48:27.258Z,18.70
2023-03-05T17:50:54.861Z,18.20
2023-03-05T17:53:23.218Z,19.30
2023-03-05T17:55:50.661Z,17.98
2023-03-05T17:58:18.347Z,19.45
2023-03-05T18:00:46.197Z,17.75
2023-03-05T18:03:13.634Z,18.52
2023-03-05T18:05:41.165Z,16.52
2023-03-05T18:08:08.653Z,18.15
2023-03-05T18:10:36.114Z,17.05
2023-03-05T18:13:03.668Z,16.42
2023-03-05T18:15:31.175Z,15.88
2023-03-05T18:17:59.144Z,20.58
2023-03-05T18:20:29.610Z,17.38
2023-03-05T18:22:57.740Z,17.45
2023-03-05T18:25:30.826Z,18.88
2023-03-05T18:28:05.596Z,15.55
2023-03-05T18:30:33.479Z,17.83
2023-03-05T18:33:01.298Z,18.23
2023-03-05T18:35:29.398Z,14.85
2023-03-05T18:37:56.981Z,15.38
2023-03-05T18:40:28.176Z,15.25
2023-03-05T18:42:56.021Z,18.45
2023-03-05T18:45:23.684Z,16.48
2023-03-05T18:47:54.158Z,18.13
2023-03-05T18:50:23.394Z,16.38
2023-03-05T18:52:50.846Z,13.25
2023-03-05T18:55:23.490Z,17.92
2023-03-05T18:57:51.147Z,17.13
2023-03-05T19:00:23.002Z,15.73
2023-03-05T19:02:50.478Z,15.52
2023-03-05T19:05:20.763Z,14.75
2023-03-05T19:07:48.549Z,14.88
2023-03-05T19:10:19.589Z,19.30
2023-03-05T19:13:26.370Z,17.05
2023-03-05T19:16:08.997Z,15.20
2023-03-05T19:18:54.016Z,15.15
2023-03-05T19:21:25.046Z,14.77
2023-03-05T19:23:52.488Z,16.65
2023-03-05T19:26:20.033Z,14.32
2023-03-05T19:28:47.605Z,16.05
2023-03-05T19:31:16.064Z,17.63
2023-03-05T19:33:43.685Z,26.17
2023-03-05T19:36:11.791Z,18.25
2023-03-05T19:38:40.517Z,14.52
2023-03-05T19:41:10.100Z,16.98
2023-03-05T19:43:37.914Z,16.58
2023-03-05T19:46:06.418Z,17.75
2023-03-05T19:48:38.038Z,15.13
2023-03-05T19:51:12.611Z,14.18
2023-03-05T19:53:41.016Z,18.65
2023-03-05T19:56:08.714Z,15.40
2023-03-05T19:58:36.537Z,14.57
2023-03-05T20:01:20.916Z,19.38
2023-03-05T20:03:49.609Z,14.38
2023-03-05T20:06:17.402Z,16.05
2023-03-05T20:08:44.904Z,16.15
2023-03-05T20:11:13.119Z,13.75
2023-03-05T20:13:41.131Z,16.20
2023-03-05T20:16:22.572Z,13.23
2023-03-05T20:18:52.986Z,12.88
2023-03-05T20:21:23.130Z,15.55
2023-03-05T20:23:51.712Z,13.93
2023-03-05T20:26:19.560Z,15.27
2023-03-05T20:28:47.322Z,15.60
2023-03-05T20:31:14.776Z,13.15
2023-03-05T20:33:42.154Z,14.38
2023-03-05T20:36:09.688Z,15.90
2023-03-05T20:38:37.153Z,12.63
2023-03-05T20:41:12.124Z,13.55
2023-03-05T20:43:43.502Z,12.85
2023-03-05T20:46:21.440Z,12.35
2023-03-05T20:48:49.847Z,11.38
2023-03-05T20:51:19.151Z,10.75
2023-03-05T20:53:46.606Z,12.15
2023-03-05T20:56:14.122Z,12.95
2023-03-05T20:58:41.532Z,15.27
2023-03-05T21:01:08.989Z,12.32
2023-03-05T21:03:37.345Z,12.68
2023-03-05T21:06:04.896Z,14.45
2023-03-05T21:08:32.572Z,16.63
2023-03-05T21:11:00.672Z,12.63
2023-03-05T21:13:28.882Z,15.35
2023-03-05T21:15:56.243Z,12.13
2023-03-05T21:18:23.867Z,12.63
2023-03-05T21:20:51.260Z,13.00
2023-03-05T21:23:18.664Z,17.27
2023-03-05T21:25:46.246Z,14.95
2023-03-05T21:28:18.724Z,14.52
2023-03-05T21:30:48.368Z,14.30
2023-03-05T21:33:17.574Z,15.52
2023-03-05T21:35:45.329Z,13.27
2023-03-05T21:38:14.281Z,13.27
2023-03-05T21:40:45.370Z,14.10
2023-03-05T21:43:13.508Z,12.80
2023-03-05T21:45:41.282Z,13.57
2023-03-05T21:48:09.509Z,14.05
2023-03-05T21:50:39.833Z,16.48
2023-03-05T21:53:08.230Z,15.43
2023-03-05T21:55:46.549Z,17.85
2023-03-05T21:58:17.016Z,12.70
2023-03-05T22:00:44.523Z,14.65
2023-03-05T22:03:11.965Z,16.40
2023-03-05T22:05:39.381Z,16.75
2023-03-05T22:08:06.737Z,15.18
2023-03-05T22:10:34.165Z,14.70
2023-03-05T22:13:12.579Z,16.25
2023-03-05T22:15:50.494Z,16.45
2023-03-05T22:18:28.108Z,17.38
2023-03-05T22:20:56.301Z,16.77
2023-03-05T22:23:24.615Z,15.13
2023-03-05T22:25:59.189Z,14.80
2023-03-05T22:28:27.072Z,15.93
2023-03-05T22:30:54.639Z,16.27
2023-03-05T22:33:23.256Z,15.25
2023-03-05T22:35:51.152Z,15.80
2023-03-05T22:38:18.732Z,14.43
2023-03-05T22:40:47.555Z,14.70
2023-03-05T22:43:15.633Z,14.73
2023-03-05T22:45:43.416Z,12.38
2023-03-05T22:48:11.365Z,13.55
2023-03-05T22:50:39.706Z,15.20
2023-03-05T22:53:07.337Z,14.32
2023-03-05T22:55:34.740Z,14.82
2023-03-05T22:58:02.093Z,13.48
2023-03-05T23:00:29.543Z,12.27
2023-03-05T23:02:57.153Z,14.25
2023-03-05T23:05:24.608Z,15.05
2023-03-05T23:07:51.978Z,12.60
2023-03-05T23:10:26.665Z,14.43
2023-03-05T23:12:55.080Z,12.45
2023-03-05T23:15:24.274Z,13.48
2023-03-05T23:17:51.970Z,13.43
2023-03-05T23:20:24.783Z,15.30
2023-03-05T23:22:56.251Z,14.95
2023-03-05T23:25:25.278Z,15.13
2023-03-05T23:27:52.633Z,15.40
2023-03-05T23:30:21.095Z,15.20
2023-03-05T23:32:50.137Z,15.25
2023-03-05T23:35:19.973Z,14.65
2023-03-05T23:37:47.808Z,14.32
2023-03-05T23:40:17.524Z,13.05
2023-03-05T23:42:45.288Z,15.38
2023-03-05T23:45:13.743Z,14.98
2023-03-05T23:47:41.734Z,16.13
2023-03-05T23:50:12.188Z,15.38
2023-03-05T23:52:39.585Z,14.98
2023-03-05T23:55:07.228Z,15.88
2023-03-05T23:57:35.127Z,13.73
